Time;durP1;ratioP1;P1;durP2;ratioP2;P2;SDS_P1;SDS_P2;PMS_P1;PMS_P2;Temp;Humidity;BMP_temperature;BMP_pressure;BME280_temperature;BME280_humidity;BME280_pressure;Samples;Min_cycle;Max_cycle;Signal;HPM_P1;HPM_P2
2023/08/07 00:01:44;;;;;;;5.97;5.28;;;;;;;12.71;100.00;100752.56;6204319;23;20032;-71
2023/08/07 00:04:11;;;;;;;7.60;5.38;;;;;;;12.60;100.00;100748.88;6175552;23;20043;-71
2023/08/07 00:06:37;;;;;;;5.90;5.30;;;;;;;12.66;100.00;100754.59;6202582;23;20027;-71
2023/08/07 00:09:04;;;;;;;9.05;5.25;;;;;;;12.19;100.00;100674.06;6198577;23;20023;-72
2023/08/07 00:11:30;;;;;;;5.75;5.22;;;;;;;12.49;100.00;100736.34;6173084;23;20034;-72
2023/08/07 00:13:58;;;;;;;6.97;4.97;;;;;;;12.57;100.00;100774.44;6180719;23;20025;-71
2023/08/07 00:16:25;;;;;;;5.93;5.07;;;;;;;12.30;100.00;100726.91;6204872;23;20082;-71
2023/08/07 00:18:55;;;;;;;5.40;5.10;;;;;;;12.68;100.00;100815.06;6206357;23;20042;-72
2023/08/07 00:21:23;;;;;;;5.70;5.20;;;;;;;12.04;100.00;100714.44;6176810;23;20012;-71
2023/08/07 00:23:49;;;;;;;5.72;5.32;;;;;;;12.13;100.00;100745.47;6175819;23;20087;-72
2023/08/07 00:26:16;;;;;;;6.13;5.63;;;;;;;12.54;100.00;100811.47;6172496;23;20086;-72
2023/08/07 00:28:43;;;;;;;6.25;5.75;;;;;;;12.65;100.00;100828.41;6200885;23;20009;-71
2023/08/07 00:31:09;;;;;;;9.43;5.18;;;;;;;11.77;100.00;100691.38;6202520;23;20748;-71
2023/08/07 00:33:36;;;;;;;5.05;4.75;;;;;;;12.38;100.00;100800.13;6202975;23;20069;-71
2023/08/07 00:36:04;;;;;;;5.22;4.82;;;;;;;12.58;100.00;100830.56;6204670;23;20076;-71
2023/08/07 00:38:30;;;;;;;5.60;5.10;;;;;;;12.41;100.00;100792.06;6169287;23;20036;-71
2023/08/07 00:40:56;;;;;;;5.65;5.13;;;;;;;12.57;100.00;100826.25;6200902;23;20087;-71
2023/08/07 00:43:23;;;;;;;4.93;4.68;;;;;;;12.24;100.00;100758.84;6173900;23;20053;-71
2023/08/07 00:45:49;;;;;;;5.15;4.85;;;;;;;12.62;100.00;100818.91;6201347;23;20016;-72
2023/08/07 00:48:17;;;;;;;5.20;4.80;;;;;;;12.28;100.00;100764.78;6199956;23;20387;-70
2023/08/07 00:50:44;;;;;;;11.55;5.57;;;;;;;11.67;100.00;100684.97;6202135;23;20881;-70
2023/08/07 00:53:13;;;;;;;5.13;4.68;;;;;;;12.48;100.00;100830.25;6160419;23;20707;-71
2023/08/07 00:55:41;;;;;;;5.22;4.82;;;;;;;12.10;100.00;100769.31;6200720;23;20043;-70
2023/08/07 00:58:07;;;;;;;5.47;5.07;;;;;;;12.04;100.00;100806.50;6167623;23;20031;-72
2023/08/07 01:00:34;;;;;;;5.63;5.07;;;;;;;11.60;100.00;100737.03;6200329;23;20044;-70
2023/08/07 01:03:01;;;;;;;6.15;5.05;;;;;;;12.22;100.00;100850.16;6185221;23;20027;-70
2023/08/07 01:05:28;;;;;;;8.65;5.05;;;;;;;12.35;100.00;100880.13;6199415;23;20031;-70
2023/08/07 01:07:55;;;;;;;5.30;4.90;;;;;;;12.33;100.00;100887.25;6196279;23;20025;-71
2023/08/07 01:10:35;;;;;;;6.43;4.97;;;;;;;12.00;100.00;100831.28;6200825;23;20028;-71
2023/08/07 01:13:23;;;;;;;5.40;4.90;;;;;;;12.30;100.00;100895.31;6203174;23;20020;-70
2023/08/07 01:15:55;;;;;;;9.93;5.90;;;;;;;11.92;100.00;100843.06;6198209;23;20035;-70
2023/08/07 01:18:22;;;;;;;6.28;5.50;;;;;;;12.29;100.00;100892.78;6201238;23;20085;-70
2023/08/07 01:20:49;;;;;;;9.25;5.35;;;;;;;12.12;100.00;100864.78;6202108;23;20024;-70
2023/08/07 01:23:15;;;;;;;7.18;6.10;;;;;;;11.89;100.00;100831.88;6195541;23;20606;-70
2023/08/07 01:25:41;;;;;;;10.07;5.43;;;;;;;12.29;100.00;100898.06;6201367;23;20032;-70
2023/08/07 01:28:19;;;;;;;6.07;5.45;;;;;;;12.27;100.00;100900.75;6172089;23;20017;-71
2023/08/07 01:30:50;;;;;;;10.35;5.47;;;;;;;11.76;100.00;100829.88;6201807;23;20030;-71
2023/08/07 01:33:19;;;;;;;14.20;5.30;;;;;;;11.02;100.00;100703.44;6202315;23;20030;-71
2023/08/07 01:35:55;;;;;;;11.45;5.97;;;;;;;12.20;100.00;100898.56;6176288;23;20083;-73
2023/08/07 01:38:25;;;;;;;12.90;5.72;;;;;;;11.94;100.00;100867.47;6197758;23;20128;-68
2023/08/07 01:40:52;;;;;;;10.55;5.65;;;;;;;11.58;100.00;100799.34;6173646;23;20023;-71
2023/08/07 01:43:21;;;;;;;10.00;5.30;;;;;;;11.48;100.00;100777.97;6173342;23;20767;-71
2023/08/07 01:45:47;;;;;;;6.13;5.60;;;;;;;12.22;100.00;100897.53;6203511;23;20015;-71
2023/08/07 01:48:14;;;;;;;7.60;5.47;;;;;;;11.90;100.00;100870.38;6204601;23;20030;-71
2023/08/07 01:50:40;;;;;;;5.70;5.32;;;;;;;11.34;100.00;100757.69;6202149;23;20034;-70
2023/08/07 01:53:07;;;;;;;8.70;5.65;;;;;;;12.23;100.00;100914.16;6185457;23;20086;-72
2023/08/07 01:55:33;;;;;;;5.15;4.82;;;;;;;11.90;100.00;100873.00;6168571;23;20743;-71
2023/08/07 01:58:00;;;;;;;6.38;4.90;;;;;;;12.23;100.00;100924.69;6190364;23;20036;-71
2023/08/07 02:00:26;;;;;;;8.02;4.70;;;;;;;10.62;100.00;100659.16;6169032;23;20034;-71
2023/08/07 02:02:54;;;;;;;5.97;5.45;;;;;;;12.07;100.00;100901.03;6202359;23;20012;-70
2023/08/07 02:05:21;;;;;;;7.22;5.60;;;;;;;12.07;100.00;100896.59;6202004;23;20028;-71
2023/08/07 02:07:48;;;;;;;5.82;5.43;;;;;;;11.61;100.00;100841.25;6197557;23;20063;-71
2023/08/07 02:10:14;;;;;;;6.07;4.90;;;;;;;11.78;100.00;100851.66;6198983;23;20071;-71
2023/08/07 02:12:40;;;;;;;5.53;5.00;;;;;;;12.10;100.00;100916.63;6199681;23;20457;-71
2023/08/07 02:15:07;;;;;;;5.63;5.13;;;;;;;12.22;100.00;100949.31;6173957;23;20475;-72
2023/08/07 02:17:35;;;;;;;6.95;4.70;;;;;;;11.62;100.00;100845.56;6203466;23;20585;-72
2023/08/07 02:20:02;;;;;;;6.55;5.18;;;;;;;12.31;100.00;100928.59;6174442;23;20035;-71
2023/08/07 02:22:29;;;;;;;8.68;5.40;;;;;;;12.37;100.00;100925.63;6199170;23;20016;-71
2023/08/07 02:24:55;;;;;;;5.43;5.00;;;;;;;11.46;100.00;100813.16;6200137;23;22284;-72
2023/08/07 02:27:21;;;;;;;5.45;5.05;;;;;;;11.92;100.00;100892.19;6198553;23;20083;-72
2023/08/07 02:29:48;;;;;;;11.18;6.07;;;;;;;12.09;100.00;100917.56;6171745;23;20014;-72
2023/08/07 02:32:14;;;;;;;6.28;4.88;;;;;;;11.98;100.00;100905.84;6168730;23;20107;-71
2023/08/07 02:34:43;;;;;;;5.03;4.72;;;;;;;11.48;100.00;100833.16;6174881;23;20024;-71
2023/08/07 02:37:09;;;;;;;4.80;4.50;;;;;;;11.82;100.00;100889.16;6175372;22;20047;-71
2023/08/07 02:39:36;;;;;;;5.63;4.82;;;;;;;11.52;100.00;100845.19;6176557;23;20023;-71
2023/08/07 02:42:03;;;;;;;6.95;5.38;;;;;;;11.73;100.00;100880.00;6171938;23;20046;-71
2023/08/07 02:44:29;;;;;;;5.70;4.95;;;;;;;11.77;100.00;100888.59;6196209;23;20643;-71
2023/08/07 02:46:55;;;;;;;5.22;4.72;;;;;;;12.03;100.00;100931.03;6201890;23;20035;-73
2023/08/07 02:49:22;;;;;;;8.18;5.03;;;;;;;10.87;100.00;100752.38;6146999;23;20448;-70
2023/08/07 02:51:49;;;;;;;5.30;5.00;;;;;;;11.75;100.00;100891.28;6198496;23;20027;-74
2023/08/07 02:54:15;;;;;;;6.15;5.00;;;;;;;11.76;100.00;100884.25;6198919;23;20025;-72
2023/08/07 02:56:42;;;;;;;5.15;4.85;;;;;;;11.88;100.00;100915.13;6197894;23;20083;-71
2023/08/07 02:59:08;;;;;;;6.50;4.80;;;;;;;11.39;100.00;100838.91;6196847;23;20176;-71
2023/08/07 03:01:35;;;;;;;4.80;4.50;;;;;;;11.09;100.00;100765.22;6194557;23;20026;-71
2023/08/07 03:04:01;;;;;;;6.88;5.38;;;;;;;11.74;100.00;100881.69;6180822;23;20400;-71
2023/08/07 03:06:28;;;;;;;5.05;4.75;;;;;;;11.97;100.00;100933.09;6209508;23;20072;-71
2023/08/07 03:08:54;;;;;;;8.50;5.47;;;;;;;11.82;100.00;100912.84;6169230;23;20621;-71
2023/08/07 03:11:21;;;;;;;18.98;5.10;;;;;;;11.72;100.00;100895.84;6198198;23;20031;-70
2023/08/07 03:13:48;;;;;;;5.57;5.20;;;;;;;11.51;100.00;100869.81;6199612;23;20088;-71
2023/08/07 03:16:15;;;;;;;5.47;5.07;;;;;;;11.08;100.00;100793.25;6195927;23;20028;-71
2023/08/07 03:18:41;;;;;;;6.28;4.93;;;;;;;11.88;100.00;100925.66;6177977;23;20504;-71
2023/08/07 03:21:08;;;;;;;5.40;4.90;;;;;;;11.78;100.00;100906.03;6199461;23;20087;-71
2023/08/07 03:23:34;;;;;;;8.32;4.93;;;;;;;10.77;100.00;100737.09;6198977;23;20517;-71
2023/08/07 03:26:11;;;;;;;5.43;4.97;;;;;;;11.96;100.00;100928.75;6196002;23;20019;-71
2023/08/07 03:28:40;;;;;;;5.63;4.85;;;;;;;11.93;100.00;100925.47;6176582;23;20020;-71
2023/08/07 03:31:07;;;;;;;5.95;5.45;;;;;;;11.82;100.00;100909.38;6200950;23;20029;-72
2023/08/07 03:33:33;;;;;;;8.68;5.20;;;;;;;10.89;100.00;100756.59;6172195;23;20040;-71
2023/08/07 03:36:00;;;;;;;7.78;4.85;;;;;;;11.95;100.00;100913.06;6169120;23;20127;-71
2023/08/07 03:38:26;;;;;;;5.45;5.07;;;;;;;11.57;100.00;100858.97;6199619;23;20639;-72
2023/08/07 03:40:53;;;;;;;5.85;5.30;;;;;;;11.71;100.00;100881.88;6200926;23;20655;-72
2023/08/07 03:43:19;;;;;;;5.15;4.75;;;;;;;11.94;100.00;100927.97;6196810;23;20016;-73
2023/08/07 03:45:47;;;;;;;8.77;5.05;;;;;;;11.51;100.00;100846.16;6171641;23;20039;-71
2023/08/07 03:48:13;;;;;;;5.22;4.72;;;;;;;11.47;100.00;100836.72;6199928;23;20103;-71
2023/08/07 03:50:40;;;;;;;4.80;4.50;;;;;;;11.48;100.00;100861.22;6170650;23;20102;-71
2023/08/07 03:53:07;;;;;;;7.07;4.65;;;;;;;11.97;100.00;100930.47;6198422;23;20020;-71
2023/08/07 03:55:35;;;;;;;12.65;4.90;;;;;;;11.94;100.00;100920.09;6197881;23;20762;-71
2023/08/07 03:58:02;;;;;;;5.22;4.82;;;;;;;11.64;100.00;100869.13;6152483;23;20641;-71
2023/08/07 04:00:31;;;;;;;6.78;5.00;;;;;;;11.63;100.00;100860.41;6197454;23;20043;-71
2023/08/07 04:02:57;;;;;;;4.90;4.60;;;;;;;11.52;100.00;100857.50;6164643;23;20020;-72
2023/08/07 04:05:24;;;;;;;10.40;5.40;;;;;;;11.31;100.00;100825.34;6199248;23;20008;-71
2023/08/07 04:07:50;;;;;;;7.53;5.30;;;;;;;11.42;100.00;100833.47;6198162;23;20016;-71
2023/08/07 04:10:16;;;;;;;5.03;4.72;;;;;;;11.98;100.00;100931.28;6164345;23;20033;-71
2023/08/07 04:12:43;;;;;;;4.97;4.68;;;;;;;11.97;100.00;100916.47;6194802;23;20012;-72
2023/08/07 04:15:10;;;;;;;5.45;4.95;;;;;;;11.85;100.00;100891.66;6198426;23;20031;-71
2023/08/07 04:17:36;;;;;;;5.35;4.95;;;;;;;11.90;100.00;100909.81;6196632;23;20023;-72
2023/08/07 04:20:03;;;;;;;4.90;4.60;;;;;;;11.98;100.00;100924.25;6200938;23;20115;-71
2023/08/07 04:22:30;;;;;;;5.13;4.80;;;;;;;11.97;100.00;100925.19;6203833;23;20032;-71
2023/08/07 04:24:56;;;;;;;6.32;5.22;;;;;;;11.71;100.00;100878.41;6173712;23;20051;-71
2023/08/07 04:27:22;;;;;;;5.70;5.20;;;;;;;11.18;100.00;100804.97;6203339;23;20477;-71
2023/08/07 04:29:49;;;;;;;5.18;4.78;;;;;;;11.52;100.00;100855.72;6175568;23;20028;-72
2023/08/07 04:32:15;;;;;;;4.97;4.68;;;;;;;11.86;100.00;100908.25;6197769;23;20829;-71
2023/08/07 04:34:42;;;;;;;6.75;4.93;;;;;;;12.01;100.00;100935.53;6199727;22;20456;-71
2023/08/07 04:37:08;;;;;;;5.57;5.10;;;;;;;11.57;100.00;100869.47;6175698;23;20088;-71
2023/08/07 04:39:35;;;;;;;6.60;5.43;;;;;;;11.36;100.00;100828.56;6155620;23;20356;-71
2023/08/07 04:42:05;;;;;;;7.35;5.68;;;;;;;11.98;100.00;100937.41;6184800;23;20055;-71
2023/08/07 04:44:31;;;;;;;5.53;5.13;;;;;;;11.69;100.00;100896.88;6200369;23;20060;-70
2023/08/07 04:46:58;;;;;;;5.85;5.35;;;;;;;11.79;100.00;100907.75;6180225;23;20028;-72
2023/08/07 04:49:24;;;;;;;7.45;5.90;;;;;;;11.59;100.00;100874.66;6178713;23;20028;-70
2023/08/07 04:51:51;;;;;;;9.02;5.80;;;;;;;11.86;100.00;100917.00;6168802;23;20710;-71
2023/08/07 04:54:17;;;;;;;5.65;5.15;;;;;;;11.71;100.00;100892.38;6205149;23;20028;-71
2023/08/07 04:56:44;;;;;;;5.28;4.97;;;;;;;11.89;100.00;100919.50;6197880;23;20389;-71
2023/08/07 04:59:11;;;;;;;5.32;5.00;;;;;;;11.88;100.00;100912.50;6200592;23;20019;-70
2023/08/07 05:01:38;;;;;;;6.78;5.40;;;;;;;11.77;100.00;100897.31;6166834;23;20490;-71
2023/08/07 05:04:05;;;;;;;6.43;5.63;;;;;;;12.05;100.00;100939.72;6201871;22;20037;-70
2023/08/07 05:06:32;;;;;;;5.30;4.97;;;;;;;12.05;100.00;100926.56;6183296;23;20040;-72
2023/08/07 05:08:58;;;;;;;9.40;5.00;;;;;;;12.08;100.00;100936.91;6202285;23;20053;-71
2023/08/07 05:11:24;;;;;;;9.57;5.30;;;;;;;11.87;100.00;100891.56;6191371;23;20524;-70
2023/08/07 05:13:51;;;;;;;12.93;6.35;;;;;;;12.07;100.00;100930.81;6199772;23;20083;-71
2023/08/07 05:16:19;;;;;;;7.03;5.20;;;;;;;12.30;100.00;100934.78;6199339;23;20034;-71
2023/08/07 05:18:46;;;;;;;6.00;5.50;;;;;;;12.38;100.00;100916.78;6206626;23;20050;-71
2023/08/07 05:21:16;;;;;;;9.02;5.50;;;;;;;11.31;100.00;100770.16;6172529;23;20584;-71
2023/08/07 05:23:42;;;;;;;5.72;5.22;;;;;;;12.18;100.00;100912.63;6199160;23;20593;-71
2023/08/07 05:26:09;;;;;;;12.75;4.93;;;;;;;12.19;100.00;100916.13;6186077;23;20020;-71
2023/08/07 05:28:35;;;;;;;5.22;4.82;;;;;;;12.21;100.00;100887.94;6201300;23;20026;-71
2023/08/07 05:31:02;;;;;;;6.13;5.32;;;;;;;11.25;100.00;100728.47;6180264;23;20095;-71
2023/08/07 05:33:28;;;;;;;7.28;4.90;;;;;;;12.19;100.00;100876.66;6195818;23;20038;-71
2023/08/07 05:35:55;;;;;;;6.72;5.25;;;;;;;12.45;100.00;100882.22;6200432;23;20055;-71
2023/08/07 05:38:22;;;;;;;5.40;5.07;;;;;;;11.89;100.00;100803.78;6204674;23;20008;-71
2023/08/07 05:40:48;;;;;;;5.28;4.85;;;;;;;12.08;100.00;100842.22;6183448;23;20087;-71
2023/08/07 05:43:16;;;;;;;5.18;4.78;;;;;;;11.91;100.00;100794.03;6201283;23;20023;-71
2023/08/07 05:45:44;;;;;;;6.07;4.93;;;;;;;12.38;100.00;100876.47;6198738;23;20016;-71
2023/08/07 05:48:11;;;;;;;6.85;5.15;;;;;;;12.40;100.00;100885.13;6204482;23;20077;-71
2023/08/07 05:50:38;;;;;;;7.25;4.82;;;;;;;12.08;100.00;100822.00;6198692;23;20016;-71
2023/08/07 05:53:04;;;;;;;5.72;5.15;;;;;;;12.18;100.00;100820.53;6153239;23;20132;-71
2023/08/07 05:55:31;;;;;;;5.97;4.80;;;;;;;12.50;100.00;100890.72;6203015;23;20030;-71
2023/08/07 05:57:57;;;;;;;5.57;5.18;;;;;;;12.46;100.00;100879.50;6170667;23;20133;-71
2023/08/07 06:00:23;;;;;;;8.50;5.80;;;;;;;12.11;100.00;100813.94;6203250;23;20047;-71
2023/08/07 06:02:50;;;;;;;5.88;5.38;;;;;;;11.57;100.00;100745.94;6178797;23;20083;-70
2023/08/07 06:05:16;;;;;;;5.55;5.05;;;;;;;12.07;100.00;100820.31;6196988;23;20023;-71
2023/08/07 06:07:43;;;;;;;6.22;4.68;;;;;;;11.76;100.00;100755.41;6170063;23;20120;-72
2023/08/07 06:10:09;;;;;;;12.07;5.75;;;;;;;12.27;100.00;100842.03;6196617;23;20423;-70
2023/08/07 06:12:36;;;;;;;5.35;4.95;;;;;;;12.45;100.00;100876.94;6183841;23;20024;-71
2023/08/07 06:15:02;;;;;;;6.03;5.15;;;;;;;12.40;100.00;100868.47;6196124;23;20616;-71
2023/08/07 06:17:29;;;;;;;5.00;4.60;;;;;;;12.00;100.00;100797.91;6146521;23;20016;-71
2023/08/07 06:19:55;;;;;;;5.82;5.25;;;;;;;11.88;100.00;100803.84;6179874;23;20025;-70
2023/08/07 06:22:22;;;;;;;5.07;4.72;;;;;;;12.17;100.00;100837.28;6172790;23;20020;-71
2023/08/07 06:24:48;;;;;;;5.55;5.15;;;;;;;12.62;100.00;100897.91;6205644;23;20034;-71
2023/08/07 06:27:15;;;;;;;5.38;5.07;;;;;;;12.43;100.00;100873.56;6198157;23;20100;-71
2023/08/07 06:29:41;;;;;;;6.28;5.40;;;;;;;12.51;100.00;100903.78;6172687;23;20024;-73
2023/08/07 06:32:10;;;;;;;5.78;5.10;;;;;;;12.52;100.00;100917.78;6201614;22;20071;-71
2023/08/07 06:34:37;;;;;;;5.30;5.00;;;;;;;12.49;100.00;100905.66;6199399;23;20420;-71
2023/08/07 06:37:05;;;;;;;7.15;5.20;;;;;;;12.27;100.00;100871.81;6152150;23;20573;-71
2023/08/07 06:39:31;;;;;;;9.73;5.28;;;;;;;12.45;100.00;100900.63;6195857;23;20034;-71
2023/08/07 06:42:00;;;;;;;6.07;4.75;;;;;;;12.51;100.00;100935.38;6170666;23;20024;-72
2023/08/07 06:44:26;;;;;;;5.00;4.68;;;;;;;12.47;100.00;100935.63;6197729;23;20083;-71
2023/08/07 06:46:52;;;;;;;8.40;5.05;;;;;;;12.08;100.00;100885.13;6168002;23;20415;-71
2023/08/07 06:49:19;;;;;;;5.90;5.32;;;;;;;12.47;100.00;100947.03;6196492;23;20552;-71
2023/08/07 06:51:45;;;;;;;6.07;5.43;;;;;;;12.46;100.00;100965.53;6178733;23;20581;-71
2023/08/07 06:54:12;;;;;;;5.45;5.10;;;;;;;11.97;100.00;100905.94;6198303;23;20460;-71
2023/08/07 06:56:40;;;;;;;6.05;5.45;;;;;;;12.40;100.00;100979.03;6196928;23;20619;-72
2023/08/07 06:59:07;;;;;;;8.68;4.90;;;;;;;12.37;100.00;100980.06;6200006;23;20026;-70
2023/08/07 07:01:33;;;;;;;7.55;5.05;;;;;;;11.42;100.00;100820.34;6203837;23;20521;-71
2023/08/07 07:04:00;;;;;;;5.63;5.22;;;;;;;12.07;100.00;100940.50;6172531;23;20028;-70
2023/08/07 07:06:26;;;;;;;5.72;5.18;;;;;;;12.08;100.00;100939.53;6178057;23;20057;-70
2023/08/07 07:08:54;;;;;;;6.57;5.10;;;;;;;12.40;100.00;100971.13;6178928;23;20409;-70
2023/08/07 07:11:23;;;;;;;5.70;5.35;;;;;;;12.38;100.00;100987.84;6162230;23;20605;-71
2023/08/07 07:13:51;;;;;;;5.70;4.75;;;;;;;12.61;100.00;101009.44;6199863;23;20043;-70
2023/08/07 07:16:18;;;;;;;5.60;5.20;;;;;;;12.51;100.00;100988.03;6194902;23;20657;-71
2023/08/07 07:18:45;;;;;;;5.97;5.25;;;;;;;12.34;100.00;100952.09;6145185;23;20099;-70
2023/08/07 07:21:11;;;;;;;8.98;5.30;;;;;;;12.64;100.00;101009.25;6168071;23;20040;-71
2023/08/07 07:23:38;;;;;;;5.75;5.35;;;;;;;11.89;100.00;100884.47;6196109;23;20028;-71
2023/08/07 07:26:04;;;;;;;5.80;5.22;;;;;;;12.55;100.00;100988.72;6164457;23;20035;-70
2023/08/07 07:28:30;;;;;;;10.82;5.57;;;;;;;12.14;100.00;100926.88;6199463;23;20027;-71
2023/08/07 07:30:57;;;;;;;9.30;5.65;;;;;;;12.38;100.00;100973.84;6197922;23;20111;-70
2023/08/07 07:33:23;;;;;;;5.43;4.93;;;;;;;12.53;100.00;101001.97;6199124;23;20494;-70
2023/08/07 07:35:50;;;;;;;6.70;4.97;;;;;;;12.34;100.00;100956.53;6198188;23;20552;-70
2023/08/07 07:38:16;;;;;;;6.45;5.85;;;;;;;12.74;100.00;101017.50;6200279;23;20020;-71
2023/08/07 07:40:43;;;;;;;13.98;5.63;;;;;;;12.69;100.00;101014.25;6190605;23;20099;-70
2023/08/07 07:43:10;;;;;;;11.55;5.80;;;;;;;12.55;100.00;100976.41;6178216;23;20059;-72
2023/08/07 07:45:36;;;;;;;6.35;5.47;;;;;;;12.87;100.00;101007.09;6165384;23;20034;-73
2023/08/07 07:48:03;;;;;;;9.93;5.80;;;;;;;12.90;100.00;100991.13;6169893;23;20036;-71
2023/08/07 07:50:30;;;;;;;5.43;5.13;;;;;;;11.92;100.00;100829.06;6167742;23;20407;-71
2023/08/07 07:52:56;;;;;;;5.65;5.25;;;;;;;12.56;100.00;100940.38;6172144;23;20563;-75
2023/08/07 07:55:25;;;;;;;5.82;5.32;;;;;;;12.76;100.00;100970.84;6173898;23;20031;-70
2023/08/07 07:57:51;;;;;;;6.00;5.40;;;;;;;12.88;100.00;100990.38;6199597;23;20058;-70
2023/08/07 08:00:18;;;;;;;6.60;5.63;;;;;;;13.13;100.00;101017.00;6176316;23;20012;-72
2023/08/07 08:02:45;;;;;;;5.75;5.35;;;;;;;13.07;100.00;101027.03;6205221;23;20052;-74
2023/08/07 08:05:12;;;;;;;5.55;5.03;;;;;;;12.68;100.00;100957.28;6186506;23;20312;-74
2023/08/07 08:07:39;;;;;;;5.28;4.78;;;;;;;12.83;100.00;101002.94;6202549;23;20023;-74
2023/08/07 08:10:07;;;;;;;5.25;4.95;;;;;;;13.00;100.00;101004.63;6176401;23;20031;-74
2023/08/07 08:12:35;;;;;;;6.90;5.25;;;;;;;13.14;100.00;101038.94;6196600;23;20509;-74
2023/08/07 08:15:02;;;;;;;8.48;5.63;;;;;;;12.69;100.00;100957.19;6173121;23;20056;-74
2023/08/07 08:17:29;;;;;;;5.47;5.07;;;;;;;13.44;100.00;101030.22;6204104;23;20047;-71
2023/08/07 08:19:56;;;;;;;6.55;5.30;;;;;;;12.31;100.00;100817.25;6165044;23;20044;-71
2023/08/07 08:22:22;;;;;;;5.65;5.10;;;;;;;13.49;100.00;100994.75;6201139;23;20039;-70
2023/08/07 08:24:49;;;;;;;5.32;4.93;;;;;;;13.80;100.00;101026.31;6199325;23;20031;-72
2023/08/07 08:27:17;;;;;;;5.72;5.32;;;;;;;13.85;100.00;101019.84;6201581;23;20085;-73
2023/08/07 08:29:44;;;;;;;5.63;5.22;;;;;;;13.46;100.00;100918.44;6177914;23;20023;-72
2023/08/07 08:32:11;;;;;;;7.68;5.28;;;;;;;13.99;100.00;100971.47;6196320;23;20028;-73
2023/08/07 08:34:37;;;;;;;6.97;5.30;;;;;;;13.02;100.00;100792.81;6200401;23;20034;-73
2023/08/07 08:37:07;;;;;;;6.07;5.55;;;;;;;14.16;100.00;100983.63;6196647;23;20031;-73
2023/08/07 08:39:34;;;;;;;6.20;5.07;;;;;;;14.05;100.00;100930.66;6177559;23;20016;-74
2023/08/07 08:42:01;;;;;;;5.43;5.10;;;;;;;13.90;100.00;100885.84;6199949;23;20042;-72
2023/08/07 08:44:31;;;;;;;6.07;5.50;;;;;;;13.91;100.00;100906.00;6202936;23;20050;-72
2023/08/07 08:46:59;;;;;;;5.55;5.20;;;;;;;14.04;100.00;100903.44;6177228;23;20028;-70
2023/08/07 08:49:35;;;;;;;6.00;5.47;;;;;;;14.14;100.00;100912.47;6174947;23;20044;-70
2023/08/07 08:52:02;;;;;;;7.10;5.63;;;;;;;13.86;100.00;100899.31;6202235;23;20672;-71
2023/08/07 08:54:29;;;;;;;6.05;5.55;;;;;;;14.14;100.00;100953.84;6173443;23;20580;-70
2023/08/07 08:56:58;;;;;;;5.60;5.20;;;;;;;14.31;100.00;100980.03;6198723;23;20087;-70
2023/08/07 08:59:25;;;;;;;6.25;5.80;;;;;;;14.27;100.00;100985.59;6200360;23;20395;-71
2023/08/07 09:01:52;;;;;;;5.28;4.88;;;;;;;14.27;100.00;100991.72;6202811;23;20024;-71
2023/08/07 09:04:19;;;;;;;7.05;6.45;;;;;;;13.68;100.00;100907.44;6198607;23;20031;-71
2023/08/07 09:06:46;;;;;;;6.35;5.40;;;;;;;14.19;100.00;101004.53;6202414;23;20051;-70
2023/08/07 09:09:14;;;;;;;7.35;5.75;;;;;;;14.02;100.00;100988.94;6173338;23;20023;-71
2023/08/07 09:11:42;;;;;;;5.50;5.20;;;;;;;13.83;100.00;100994.47;6201296;23;20019;-69
2023/08/07 09:14:12;;;;;;;5.50;5.10;;;;;;;13.52;100.00;100933.06;6176649;23;20024;-69
2023/08/07 09:16:39;;;;;;;5.10;4.80;;;;;;;14.00;100.00;101007.47;6200484;23;20556;-72
2023/08/07 09:19:06;;;;;;;5.88;5.45;;;;;;;14.13;100.00;101023.41;6202528;23;22188;-69
2023/08/07 09:21:33;;;;;;;7.68;5.78;;;;;;;14.21;100.00;100999.16;6198820;23;20063;-70
2023/08/07 09:23:59;;;;;;;5.15;4.85;;;;;;;14.54;100.00;101006.75;6176803;23;20071;-71
2023/08/07 09:26:26;;;;;;;5.80;5.28;;;;;;;14.65;100.00;100945.34;6200326;23;20536;-71
2023/08/07 09:28:55;;;;;;;6.03;5.47;;;;;;;15.15;100.00;100968.44;6186486;23;20027;-71
2023/08/07 09:31:26;;;;;;;5.63;5.32;;;;;;;14.87;100.00;100905.13;6198485;23;20089;-71
2023/08/07 09:33:53;;;;;;;7.43;5.40;;;;;;;14.92;100.00;100918.91;6169571;23;20031;-71
2023/08/07 09:36:19;;;;;;;6.10;5.60;;;;;;;14.75;100.00;100910.31;6199512;23;20082;-71
2023/08/07 09:38:52;;;;;;;5.70;5.35;;;;;;;14.72;100.00;100925.50;6171187;23;20427;-70
2023/08/07 09:41:21;;;;;;;6.07;5.47;;;;;;;14.48;100.00;100875.97;6174552;23;20797;-71
2023/08/07 09:43:47;;;;;;;5.50;5.10;;;;;;;15.15;100.00;100899.69;6201777;22;20028;-71
2023/08/07 09:46:14;;;;;;;5.45;5.15;;;;;;;15.68;100.00;100896.09;6200593;23;20064;-71
2023/08/07 09:48:43;;;;;;;5.18;4.90;;;;;;;15.54;98.59;100762.97;6171769;23;20024;-70
2023/08/07 09:51:10;;;;;;;6.15;5.20;;;;;;;16.26;95.55;100801.06;6197219;23;20035;-69
2023/08/07 09:53:37;;;;;;;5.40;5.10;;;;;;;16.66;95.48;100841.28;6172473;23;20020;-69
2023/08/07 09:56:03;;;;;;;6.60;5.47;;;;;;;16.77;93.52;100813.13;6172959;23;20094;-68
2023/08/07 09:58:30;;;;;;;7.57;5.47;;;;;;;17.10;91.98;100789.34;6197035;23;20022;-67
2023/08/07 10:01:00;;;;;;;5.57;5.28;;;;;;;16.80;90.00;100701.56;6172725;23;20012;-67
2023/08/07 10:03:27;;;;;;;8.23;5.20;;;;;;;17.20;86.55;100717.00;6193464;23;20028;-68
2023/08/07 10:05:54;;;;;;;5.85;5.30;;;;;;;17.72;86.01;100739.31;6178344;23;20064;-68
2023/08/07 10:08:22;;;;;;;6.15;5.70;;;;;;;17.81;82.77;100642.16;6197142;23;20060;-68
2023/08/07 10:10:48;;;;;;;5.93;5.40;;;;;;;18.32;79.74;100628.97;6177220;23;20043;-68
2023/08/07 10:13:15;;;;;;;7.28;6.13;;;;;;;18.53;79.20;100630.75;6192446;23;20491;-68
2023/08/07 10:15:45;;;;;;;5.70;5.40;;;;;;;18.32;75.89;100512.06;6197324;23;20098;-67
2023/08/07 10:18:12;;;;;;;6.25;5.75;;;;;;;18.61;74.97;100526.41;6200288;23;20041;-68
2023/08/07 10:20:42;;;;;;;5.95;5.40;;;;;;;18.34;73.67;100446.38;6183446;23;20669;-68
2023/08/07 10:23:10;;;;;;;6.35;5.70;;;;;;;18.17;73.15;100393.06;6172511;23;20031;-67
2023/08/07 10:25:41;;;;;;;5.97;5.50;;;;;;;18.72;72.68;100451.84;6192833;23;21111;-68
2023/08/07 10:28:14;;;;;;;6.32;5.63;;;;;;;18.45;70.06;100341.75;6196398;23;20020;-68
2023/08/07 10:30:41;;;;;;;5.82;5.20;;;;;;;18.28;70.31;100305.25;6196426;23;20020;-68
2023/08/07 10:33:10;;;;;;;5.78;5.38;;;;;;;17.53;69.21;100173.00;6200342;23;20028;-69
2023/08/07 10:35:37;;;;;;;6.68;5.38;;;;;;;18.81;67.00;100272.09;6202400;23;20800;-69
2023/08/07 10:38:08;;;;;;;5.60;5.10;;;;;;;19.22;67.92;100355.94;6168917;23;20023;-67
2023/08/07 10:41:07;;;;;;;5.63;5.30;;;;;;;19.13;64.45;100191.91;6199968;23;20551;-67
2023/08/07 10:43:41;;;;;;;6.45;5.30;;;;;;;18.57;63.42;100058.09;6168935;23;20685;-67
2023/08/07 10:46:23;;;;;;;6.35;5.85;;;;;;;18.51;64.93;100162.31;6167422;23;20530;-66
2023/08/07 10:48:57;;;;;;;6.20;5.30;;;;;;;18.60;64.52;100187.19;6167073;23;20399;-67
2023/08/07 10:51:30;;;;;;;5.53;5.22;;;;;;;18.26;64.88;100147.84;6198679;23;20031;-66
2023/08/07 10:53:57;;;;;;;5.60;5.30;;;;;;;18.30;65.82;100218.28;6199906;23;20020;-66
2023/08/07 10:56:37;;;;;;;5.53;5.15;;;;;;;18.29;64.88;100182.94;6165074;23;20028;-68
2023/08/07 10:59:10;;;;;;;6.15;5.65;;;;;;;18.52;65.54;100273.81;6199124;23;20479;-68
2023/08/07 11:01:38;;;;;;;5.50;5.20;;;;;;;18.80;65.27;100318.25;6197405;23;20086;-67
2023/08/07 11:04:10;;;;;;;5.63;5.32;;;;;;;19.13;65.69;100373.63;6198661;22;20023;-67
2023/08/07 11:06:38;;;;;;;5.80;5.40;;;;;;;19.25;64.07;100302.47;6066049;23;20031;-66
2023/08/07 11:09:06;;;;;;;5.70;5.40;;;;;;;19.41;62.03;100242.47;6171002;23;20008;-67
2023/08/07 11:11:40;;;;;;;6.05;5.53;;;;;;;18.91;59.35;100036.25;6176129;23;20122;-66
2023/08/07 11:14:11;;;;;;;5.75;5.45;;;;;;;17.86;59.61;99896.69;6195604;23;20016;-67
2023/08/07 11:16:38;;;;;;;5.60;5.30;;;;;;;18.79;58.91;100069.34;6199210;23;20028;-67
2023/08/07 11:19:05;;;;;;;5.30;5.05;;;;;;;19.09;57.96;100073.50;6168273;23;20098;-67